Longview, TX

10:26 PM CST on January 29, 2015 (GMT -0600)
Downtown | Change Station
CLOSE
Current Station
Personal Weather Station
Location: Longview, TX
Elevation: 380 ft
Nearby Weather Stations

Elev 380 ft 32.51 °N, 94.71 °W | Updated 5 seconds ago

Partly Cloudy
Partly Cloudy
50.2 °F
Feels Like 50.2 °F
N
3.1
Wind Variable Wind from West
Gusts 3.1 mph

Today
High -- | Low -- °F
--% Chance of Precip.
Yesterday
High -- | Low -- °F
Precip. -- in
7:15 AM 5:49 PM
Waxing Gibbous, 79% visible
Pressure 30.40 in
Visibility 10.0 miles
Clouds Clear
Dew Point 35 °F
Humidity 55%
Rainfall 0.00 in
Snow Depth Not available.
UV 0 out of 12
Pollen 8.10 out of 12
Air Quality Not available.
Flu Activity Not available.
METAR KGGG 300353Z 36011G20KT 10SM CLR 11/01 A3040 RMK AO2 SLP295 T01110011

More Conditions Fewer Conditions

Pressure 30.40 in
Visibility 10.0 miles
Clouds Clear
Dew Point 35 °F
Humidity 55%
Rainfall 0.00 in
Snow Depth Not available.
UV 0 out of 12
Pollen 8.10 out of 12
Air Quality Not available.
Flu Activity Not available.
METAR KGGG 300353Z 36011G20KT 10SM CLR 11/01 A3040 RMK AO2 SLP295 T01110011

More Conditions Fewer Conditions

10-Day Weather Forecast

Almanac

Astronomy

Jan. 29, 2015 Rise Set
Actual Time
Civil Twilight
Nautical Twilight
Astronomical Twilight
Moon
Length of Visible Light
Length of Day
Tomorrow will be .
, % of the Moon is Illuminated

Today's Extremes

State Highs State Lows

Community

WunderPhotos

Upload Photos

1,791,706 photos uploaded!

WunderBlogs® & News

Nearby

Air Quality

  Air Quality AQ Index Pollutant
Not available.

Snow Depth

Station Depth Elevation

Earthquake Activity

City Distance Mag. Time & Date
Minimum magnitude displayed is 2.5.

Coastal Water Temperatures

Place Temperature

Nearby Weather Stations